createdAt,value
2022-10-14T00:01:25.506Z,13.92
2022-10-14T00:03:54.026Z,13.90
2022-10-14T00:06:25.230Z,13.88
2022-10-14T00:08:53.328Z,13.88
2022-10-14T00:11:27.739Z,13.87
2022-10-14T00:14:00.484Z,13.86
2022-10-14T00:16:31.987Z,13.84
2022-10-14T00:18:59.822Z,13.82
2022-10-14T00:21:28.641Z,13.82
2022-10-14T00:23:57.091Z,13.82
2022-10-14T00:26:26.088Z,13.82
2022-10-14T00:28:54.108Z,13.85
2022-10-14T00:31:22.271Z,13.82
2022-10-14T00:33:50.486Z,13.82
2022-10-14T00:36:21.176Z,13.80
2022-10-14T00:38:49.619Z,13.81
2022-10-14T00:41:27.761Z,13.82
2022-10-14T00:44:14.210Z,13.81
2022-10-14T00:46:52.012Z,13.81
2022-10-14T00:49:22.193Z,13.81
2022-10-14T00:52:05.353Z,13.80
2022-10-14T00:54:36.382Z,13.80
2022-10-14T00:57:05.045Z,13.77
2022-10-14T00:59:34.546Z,13.79
2022-10-14T01:02:02.234Z,13.79
2022-10-14T01:04:30.103Z,13.78
2022-10-14T01:07:32.940Z,13.77
2022-10-14T01:10:19.051Z,13.78
2022-10-14T01:13:05.244Z,13.79
2022-10-14T01:15:42.128Z,13.80
2022-10-14T01:18:55.404Z,13.79
2022-10-14T01:21:37.361Z,13.80
2022-10-14T01:24:06.594Z,13.79
2022-10-14T01:27:11.729Z,13.79
2022-10-14T01:29:58.832Z,13.77
2022-10-14T01:32:29.475Z,13.76
2022-10-14T01:35:03.002Z,13.75
2022-10-14T01:37:32.071Z,13.72
2022-10-14T01:40:05.214Z,13.71
2022-10-14T01:42:36.173Z,13.72
2022-10-14T01:45:13.202Z,13.71
2022-10-14T01:47:41.980Z,13.71
2022-10-14T01:50:14.620Z,13.69
2022-10-14T01:52:51.433Z,13.66
2022-10-14T01:55:25.857Z,13.61
2022-10-14T01:57:57.591Z,13.60
2022-10-14T02:00:25.680Z,13.58
2022-10-14T02:02:53.508Z,13.59
2022-10-14T02:05:29.657Z,13.60
2022-10-14T02:08:12.003Z,13.61
2022-10-14T02:11:02.729Z,13.60
2022-10-14T02:13:38.053Z,13.60
2022-10-14T02:16:38.491Z,13.60
2022-10-14T02:19:30.929Z,13.62
2022-10-14T02:22:25.652Z,13.65
2022-10-14T02:25:01.562Z,13.61
2022-10-14T02:27:30.517Z,13.61
2022-10-14T02:30:00.578Z,13.63
2022-10-14T02:32:29.401Z,13.63
2022-10-14T02:35:00.502Z,13.62
2022-10-14T02:37:30.786Z,13.65
2022-10-14T02:40:09.920Z,13.66
2022-10-14T02:42:37.589Z,13.61
2022-10-14T02:45:06.340Z,13.61
2022-10-14T02:47:33.981Z,13.60
2022-10-14T02:50:01.596Z,13.60
2022-10-14T02:52:29.256Z,13.59
2022-10-14T02:54:56.893Z,13.59
2022-10-14T02:57:24.622Z,13.61
2022-10-14T02:59:52.513Z,13.65
2022-10-14T03:02:20.447Z,13.67
2022-10-14T03:04:48.380Z,13.66
2022-10-14T03:07:16.077Z,13.65
2022-10-14T03:09:43.730Z,13.63
2022-10-14T03:12:11.372Z,13.62
2022-10-14T03:14:38.992Z,13.60
2022-10-14T03:17:06.650Z,13.57
2022-10-14T03:19:34.483Z,13.56
2022-10-14T03:22:02.088Z,13.53
2022-10-14T03:24:29.726Z,13.51
2022-10-14T03:26:57.404Z,13.51
2022-10-14T03:29:25.310Z,13.48
2022-10-14T03:31:52.901Z,13.47
2022-10-14T03:34:20.529Z,13.46
2022-10-14T03:36:48.182Z,13.45
2022-10-14T03:39:15.822Z,13.47
2022-10-14T03:41:43.524Z,13.47
2022-10-14T03:44:12.426Z,13.47
2022-10-14T03:46:40.112Z,13.47
2022-10-14T03:49:07.797Z,13.48
2022-10-14T03:51:35.482Z,13.51
2022-10-14T03:54:03.073Z,13.52
2022-10-14T03:56:30.765Z,13.52
2022-10-14T03:58:58.449Z,13.54
2022-10-14T04:01:26.310Z,13.55
2022-10-14T04:03:54.887Z,13.54
2022-10-14T04:06:22.535Z,13.56
2022-10-14T04:08:50.216Z,13.57
2022-10-14T04:11:18.456Z,13.59
2022-10-14T04:13:46.581Z,13.58
2022-10-14T04:16:14.183Z,13.57
2022-10-14T04:18:41.833Z,13.57
2022-10-14T04:21:13.722Z,13.58
2022-10-14T04:23:41.440Z,13.60
2022-10-14T04:26:10.962Z,13.60
2022-10-14T04:28:39.302Z,13.62
2022-10-14T04:31:07.397Z,13.62
2022-10-14T04:33:36.133Z,13.60
2022-10-14T04:36:07.100Z,13.61
2022-10-14T04:38:34.830Z,13.60
2022-10-14T04:41:02.489Z,13.59
2022-10-14T04:43:30.085Z,13.60
2022-10-14T04:45:57.738Z,13.62
2022-10-14T04:48:25.367Z,13.62
2022-10-14T04:50:54.423Z,13.62
2022-10-14T04:53:22.622Z,13.63
2022-10-14T04:55:50.730Z,13.62
2022-10-14T04:58:18.674Z,13.61
2022-10-14T05:00:46.281Z,13.61
2022-10-14T05:03:13.942Z,13.59
2022-10-14T05:05:41.579Z,13.59
2022-10-14T05:08:09.200Z,13.59
2022-10-14T05:10:37.180Z,13.60
2022-10-14T05:13:04.827Z,13.58
2022-10-14T05:15:32.931Z,13.59
2022-10-14T05:18:00.591Z,13.60
2022-10-14T05:20:28.336Z,13.60
2022-10-14T05:22:55.950Z,13.60
2022-10-14T05:25:23.572Z,13.62
2022-10-14T05:27:51.237Z,13.62
2022-10-14T05:30:18.999Z,13.62
2022-10-14T05:32:46.587Z,13.62
2022-10-14T05:35:14.317Z,13.61
2022-10-14T05:37:42.497Z,13.60
2022-10-14T05:40:11.482Z,13.61
2022-10-14T05:42:39.226Z,13.61
2022-10-14T05:45:08.013Z,13.61
2022-10-14T05:47:35.642Z,13.63
2022-10-14T05:50:04.566Z,13.62
2022-10-14T05:52:34.426Z,13.62
2022-10-14T05:55:02.193Z,13.62
2022-10-14T05:57:29.884Z,13.64
2022-10-14T05:59:57.860Z,13.65
2022-10-14T06:02:25.556Z,13.66
2022-10-14T06:04:53.746Z,13.67
2022-10-14T06:07:21.393Z,13.68
2022-10-14T06:09:49.297Z,13.72
2022-10-14T06:12:16.885Z,13.75
2022-10-14T06:14:44.503Z,13.76
2022-10-14T06:17:12.170Z,13.80
2022-10-14T06:19:39.748Z,13.84
2022-10-14T06:22:07.486Z,13.86
2022-10-14T06:24:35.104Z,13.98
2022-10-14T06:27:02.740Z,14.13
2022-10-14T06:29:38.667Z,14.35
2022-10-14T06:32:07.959Z,14.56
2022-10-14T06:34:35.886Z,14.62
2022-10-14T06:37:03.641Z,14.64
2022-10-14T06:39:31.291Z,14.62
2022-10-14T06:41:58.966Z,14.63
2022-10-14T06:44:26.613Z,14.62
2022-10-14T06:46:54.220Z,14.62
2022-10-14T06:49:21.913Z,14.60
2022-10-14T06:51:49.608Z,14.59
2022-10-14T06:54:18.199Z,14.55
2022-10-14T06:56:45.869Z,14.50
2022-10-14T06:59:13.500Z,14.44
2022-10-14T07:01:41.284Z,14.43
2022-10-14T07:04:08.979Z,14.43
2022-10-14T07:06:38.330Z,14.41
2022-10-14T07:09:06.505Z,14.40
2022-10-14T07:11:34.154Z,14.38
2022-10-14T07:14:01.835Z,14.37
2022-10-14T07:16:29.785Z,14.37
2022-10-14T07:18:57.597Z,14.37
2022-10-14T07:21:25.335Z,14.38
2022-10-14T07:23:53.129Z,14.39
2022-10-14T07:26:20.811Z,14.40
2022-10-14T07:28:48.673Z,14.39
2022-10-14T07:31:16.455Z,14.41
2022-10-14T07:33:44.453Z,14.40
2022-10-14T07:36:17.217Z,14.40
2022-10-14T07:38:49.258Z,14.42
2022-10-14T07:41:20.894Z,14.44
2022-10-14T07:43:50.979Z,14.46
2022-10-14T07:46:30.494Z,14.51
2022-10-14T07:48:58.688Z,14.53
2022-10-14T07:51:28.552Z,14.56
2022-10-14T07:53:57.859Z,14.59
2022-10-14T07:56:25.565Z,14.63
2022-10-14T07:58:53.855Z,14.66
2022-10-14T08:01:21.733Z,14.73
2022-10-14T08:03:49.741Z,14.79
2022-10-14T08:06:17.710Z,14.78
2022-10-14T08:08:46.467Z,14.75
2022-10-14T08:11:19.323Z,14.81
2022-10-14T08:13:47.870Z,14.81
2022-10-14T08:16:15.425Z,14.78
2022-10-14T08:18:43.694Z,14.78
2022-10-14T08:21:11.441Z,14.82
2022-10-14T08:23:39.206Z,14.78
2022-10-14T08:26:20.356Z,14.77
2022-10-14T08:28:49.242Z,14.80
2022-10-14T08:31:17.706Z,14.81
2022-10-14T08:33:46.083Z,14.78
2022-10-14T08:36:14.244Z,14.78
2022-10-14T08:38:42.890Z,14.82
2022-10-14T08:41:13.466Z,14.82
2022-10-14T08:43:51.851Z,14.80
2022-10-14T08:46:27.748Z,14.83
2022-10-14T08:49:29.384Z,14.85
2022-10-14T08:52:21.369Z,14.88
2022-10-14T08:54:56.686Z,14.89
2022-10-14T08:57:29.488Z,14.83
2022-10-14T08:59:57.231Z,14.84
2022-10-14T09:02:24.970Z,14.85
2022-10-14T09:04:52.633Z,14.86
2022-10-14T09:07:21.265Z,14.90
2022-10-14T09:09:54.334Z,14.92
2022-10-14T09:12:27.294Z,14.92
2022-10-14T09:15:42.380Z,14.94
2022-10-14T09:18:33.511Z,15.01
2022-10-14T09:21:03.109Z,15.07
2022-10-14T09:23:30.776Z,15.07
2022-10-14T09:26:12.691Z,15.10
2022-10-14T09:28:42.962Z,15.12
2022-10-14T09:31:14.645Z,15.12
2022-10-14T09:33:44.026Z,15.07
2022-10-14T09:36:20.601Z,15.07
2022-10-14T09:38:53.576Z,15.06
2022-10-14T09:41:31.424Z,15.02
2022-10-14T09:44:22.334Z,15.01
2022-10-14T09:47:07.074Z,14.92
2022-10-14T09:49:48.545Z,14.86
2022-10-14T09:52:24.544Z,14.83
2022-10-14T09:54:57.467Z,14.76
2022-10-14T09:57:26.065Z,14.71
2022-10-14T10:00:02.962Z,14.70
2022-10-14T10:02:47.993Z,14.62
2022-10-14T10:05:42.830Z,14.61
2022-10-14T10:08:20.157Z,14.59
2022-10-14T10:11:06.511Z,14.55
2022-10-14T10:13:47.267Z,14.49
2022-10-14T10:16:22.794Z,14.46
2022-10-14T10:18:52.420Z,14.38
2022-10-14T10:21:25.984Z,14.33
2022-10-14T10:24:02.097Z,14.31
2022-10-14T10:26:33.049Z,14.30
2022-10-14T10:29:06.452Z,14.27
2022-10-14T10:32:04.315Z,14.26
2022-10-14T10:34:43.981Z,14.26
2022-10-14T10:37:27.308Z,14.27
2022-10-14T10:40:39.838Z,14.30
2022-10-14T10:43:32.861Z,14.35
2022-10-14T10:46:20.775Z,14.43
2022-10-14T10:48:58.815Z,14.50
2022-10-14T10:51:42.036Z,14.56
2022-10-14T10:54:21.176Z,14.66
2022-10-14T10:56:57.208Z,14.73
2022-10-14T10:59:48.345Z,14.82
2022-10-14T11:02:45.968Z,14.92
2022-10-14T11:05:23.176Z,15.02
2022-10-14T11:08:17.884Z,15.11
2022-10-14T11:11:17.734Z,15.20
2022-10-14T11:14:14.375Z,15.29
2022-10-14T11:17:04.469Z,15.42
2022-10-14T11:19:45.182Z,15.44
2022-10-14T11:22:29.834Z,15.47
2022-10-14T11:25:18.433Z,15.51
2022-10-14T11:28:08.463Z,15.49
2022-10-14T11:30:45.287Z,15.48
2022-10-14T11:33:21.684Z,15.57
2022-10-14T11:36:10.823Z,15.62
2022-10-14T11:38:49.361Z,15.70
2022-10-14T11:41:50.281Z,15.77
2022-10-14T11:44:41.015Z,15.82
2022-10-14T11:47:20.473Z,15.87
2022-10-14T11:52:55.343Z,15.95
2022-10-14T11:55:30.203Z,15.99
2022-10-14T11:58:02.387Z,16.04
2022-10-14T12:00:53.485Z,16.05
2022-10-14T12:03:39.925Z,16.04
2022-10-14T12:06:36.753Z,16.00
2022-10-14T12:09:12.531Z,15.96
2022-10-14T12:11:52.705Z,15.92
2022-10-14T12:14:36.003Z,15.87
2022-10-14T12:17:14.779Z,15.80
2022-10-14T12:19:46.401Z,15.75
2022-10-14T12:22:29.356Z,15.71
2022-10-14T12:25:04.465Z,15.63
2022-10-14T12:27:33.357Z,15.55
2022-10-14T12:30:01.418Z,15.47
2022-10-14T12:32:34.234Z,15.40
2022-10-14T12:35:03.229Z,15.29
2022-10-14T12:37:39.820Z,15.25
2022-10-14T12:40:13.995Z,15.17
2022-10-14T12:43:04.132Z,15.11
2022-10-14T12:45:35.280Z,15.07
2022-10-14T12:48:04.986Z,15.06
2022-10-14T12:50:37.990Z,15.03
2022-10-14T12:53:22.895Z,15.03
2022-10-14T12:55:57.299Z,15.03
2022-10-14T12:58:42.162Z,15.05
2022-10-14T13:01:22.556Z,15.04
2022-10-14T13:04:00.077Z,15.04
2022-10-14T13:06:36.591Z,15.03
2022-10-14T13:09:13.262Z,15.10
2022-10-14T13:11:42.661Z,15.12
2022-10-14T13:14:32.200Z,15.17
2022-10-14T13:17:01.790Z,15.25
2022-10-14T13:19:35.422Z,15.31
2022-10-14T13:22:06.816Z,15.38
2022-10-14T13:24:40.311Z,15.39
2022-10-14T13:27:12.241Z,15.40
2022-10-14T13:30:05.997Z,15.40
2022-10-14T13:32:49.462Z,15.39
2022-10-14T13:35:34.910Z,15.40
2022-10-14T13:38:15.784Z,15.41
2022-10-14T13:40:53.195Z,15.45
2022-10-14T13:43:32.882Z,15.50
2022-10-14T13:46:08.346Z,15.49
2022-10-14T13:48:45.011Z,15.47
2022-10-14T13:51:37.845Z,15.41
2022-10-14T13:54:26.303Z,15.37
2022-10-14T13:58:07.333Z,15.31
2022-10-14T14:00:40.547Z,15.25
2022-10-14T14:03:35.252Z,15.20
2022-10-14T14:06:11.446Z,15.18
2022-10-14T14:08:57.828Z,15.16
2022-10-14T14:11:32.670Z,15.12
2022-10-14T14:14:18.059Z,15.12
2022-10-14T14:17:06.306Z,15.07
2022-10-14T14:19:39.008Z,15.06
2022-10-14T14:22:20.507Z,15.06
2022-10-14T14:24:49.592Z,15.08
2022-10-14T14:27:23.141Z,15.10
2022-10-14T14:29:53.356Z,15.11
2022-10-14T14:32:24.434Z,15.13
2022-10-14T14:40:25.842Z,15.16
2022-10-14T14:42:56.283Z,15.16
2022-10-14T14:45:27.018Z,15.16
2022-10-14T14:47:57.503Z,15.17
2022-10-14T14:50:34.241Z,15.18
2022-10-14T14:53:15.123Z,15.18
2022-10-14T14:55:54.774Z,15.20
2022-10-14T14:58:25.650Z,15.23
2022-10-14T15:00:56.014Z,15.21
2022-10-14T15:03:29.408Z,15.25
2022-10-14T15:06:00.985Z,15.23
2022-10-14T15:08:32.226Z,15.25
2022-10-14T15:11:01.313Z,15.25
2022-10-14T15:13:40.837Z,15.27
2022-10-14T15:16:08.979Z,15.26
2022-10-14T15:18:38.787Z,15.27
2022-10-14T15:21:06.384Z,15.27
2022-10-14T15:23:53.849Z,15.30
2022-10-14T15:26:37.827Z,15.31
2022-10-14T15:29:06.595Z,15.30
2022-10-14T15:31:35.597Z,15.33
2022-10-14T15:34:04.010Z,15.35
2022-10-14T15:36:35.797Z,15.35
2022-10-14T15:39:03.850Z,15.34
2022-10-14T15:41:31.692Z,15.36
2022-10-14T15:43:59.290Z,15.37
2022-10-14T15:46:45.143Z,15.37
2022-10-14T15:49:20.588Z,15.38
2022-10-14T15:51:48.759Z,15.40
2022-10-14T15:54:17.524Z,15.41
2022-10-14T15:56:45.208Z,15.42
2022-10-14T15:59:13.275Z,15.39
2022-10-14T16:01:42.391Z,15.37
2022-10-14T16:04:17.998Z,15.38
2022-10-14T16:06:45.657Z,15.35
2022-10-14T16:09:13.420Z,15.34
2022-10-14T16:11:41.077Z,15.33
2022-10-14T16:14:11.128Z,15.32
2022-10-14T16:16:42.971Z,15.32
2022-10-14T16:19:11.029Z,15.28
2022-10-14T16:21:40.143Z,15.29
2022-10-14T16:24:09.286Z,15.27
2022-10-14T16:26:38.164Z,15.24
2022-10-14T16:29:05.935Z,15.23
2022-10-14T16:31:33.694Z,15.19
2022-10-14T16:34:02.884Z,15.20
2022-10-14T16:36:31.029Z,15.18
2022-10-14T16:38:58.761Z,15.17
2022-10-14T16:41:26.701Z,15.15
2022-10-14T16:43:54.315Z,15.13
2022-10-14T16:46:41.922Z,15.12
2022-10-14T16:49:09.712Z,15.13
2022-10-14T16:51:37.297Z,15.11
2022-10-14T16:54:05.267Z,15.12
2022-10-14T16:56:51.542Z,15.12
2022-10-14T16:59:19.891Z,15.10
2022-10-14T17:01:48.050Z,15.09
2022-10-14T17:04:16.229Z,15.09
2022-10-14T17:06:43.927Z,15.07
2022-10-14T17:09:11.582Z,15.07
2022-10-14T17:11:40.087Z,15.06
2022-10-14T17:14:07.847Z,15.08
2022-10-14T17:16:35.897Z,15.05
2022-10-14T17:19:03.533Z,15.05
2022-10-14T17:21:31.209Z,15.06
2022-10-14T17:24:03.211Z,15.04
2022-10-14T17:26:33.247Z,15.04
2022-10-14T17:29:01.240Z,15.07
2022-10-14T17:31:30.086Z,15.07
2022-10-14T17:33:59.659Z,15.05
2022-10-14T17:36:29.479Z,15.06
2022-10-14T17:38:58.418Z,15.06
2022-10-14T17:41:27.883Z,15.05
2022-10-14T17:43:57.346Z,15.04
2022-10-14T17:46:26.673Z,15.03
2022-10-14T17:48:59.800Z,15.02
2022-10-14T17:51:29.070Z,15.03
2022-10-14T17:53:59.431Z,15.02
2022-10-14T17:56:28.898Z,15.03
2022-10-14T17:58:58.598Z,15.01
2022-10-14T18:01:37.281Z,14.99
2022-10-14T18:04:15.079Z,14.96
2022-10-14T18:06:45.238Z,14.95
2022-10-14T18:09:13.583Z,14.96
2022-10-14T18:14:31.902Z,14.90
2022-10-14T18:17:00.349Z,14.89
2022-10-14T18:19:28.546Z,14.88
2022-10-14T18:21:56.220Z,14.86
2022-10-14T18:24:24.470Z,14.85
2022-10-14T18:26:52.986Z,14.83
2022-10-14T18:29:20.614Z,14.80
2022-10-14T18:34:25.931Z,14.81
2022-10-14T18:36:53.524Z,14.82
2022-10-14T18:39:21.604Z,14.83
2022-10-14T18:41:49.650Z,14.81
2022-10-14T18:44:17.381Z,14.81
2022-10-14T18:46:45.041Z,14.81
2022-10-14T18:49:13.177Z,14.78
2022-10-14T18:51:42.093Z,14.73
2022-10-14T18:54:14.763Z,14.69
2022-10-14T18:56:42.709Z,14.63
2022-10-14T18:59:22.004Z,14.57
2022-10-14T19:01:54.166Z,14.54
2022-10-14T19:04:24.898Z,14.50
2022-10-14T19:06:52.789Z,14.46
2022-10-14T19:09:22.762Z,14.44
2022-10-14T19:11:51.902Z,14.40
2022-10-14T19:14:19.591Z,14.38
2022-10-14T19:16:48.757Z,14.37
2022-10-14T19:19:19.530Z,14.35
2022-10-14T19:21:51.213Z,14.34
2022-10-14T19:24:18.892Z,14.30
2022-10-14T19:26:48.110Z,14.25
2022-10-14T19:29:16.921Z,14.23
2022-10-14T19:31:45.022Z,14.20
2022-10-14T19:34:15.700Z,14.14
2022-10-14T19:36:44.080Z,14.12
2022-10-14T19:39:14.976Z,14.06
2022-10-14T19:41:45.826Z,14.04
2022-10-14T19:44:14.956Z,14.01
2022-10-14T19:46:43.035Z,13.96
2022-10-14T19:49:13.451Z,13.91
2022-10-14T19:51:41.149Z,13.89
2022-10-14T19:54:09.094Z,13.88
2022-10-14T19:56:36.758Z,13.88
2022-10-14T19:59:04.697Z,13.86
2022-10-14T20:01:32.615Z,13.84
2022-10-14T20:04:01.822Z,13.82
2022-10-14T20:06:32.835Z,13.80
2022-10-14T20:09:00.796Z,13.79
2022-10-14T20:11:29.442Z,13.79
2022-10-14T20:13:57.209Z,13.79
2022-10-14T20:16:25.160Z,13.78
2022-10-14T20:18:53.154Z,13.79
2022-10-14T20:21:20.773Z,13.78
2022-10-14T20:23:48.463Z,13.76
2022-10-14T20:26:18.995Z,13.77
2022-10-14T20:28:47.430Z,13.75
2022-10-14T20:31:18.580Z,13.75
2022-10-14T20:33:46.604Z,13.74
2022-10-14T20:36:17.056Z,13.71
2022-10-14T20:38:45.522Z,13.73
2022-10-14T20:41:16.242Z,13.68
2022-10-14T20:43:45.635Z,13.70
2022-10-14T20:46:14.060Z,13.70
2022-10-14T20:48:42.314Z,13.70
2022-10-14T20:51:12.723Z,13.68
2022-10-14T20:56:15.114Z,13.68
2022-10-14T20:58:43.313Z,13.65
2022-10-14T21:01:18.498Z,13.63
2022-10-14T21:03:48.656Z,13.62
2022-10-14T21:06:19.830Z,13.59
2022-10-14T21:08:48.681Z,13.59
2022-10-14T21:11:18.711Z,13.60
2022-10-14T21:13:54.757Z,13.62
2022-10-14T21:16:27.560Z,13.61
2022-10-14T21:19:01.049Z,13.58
2022-10-14T21:21:30.873Z,13.59
2022-10-14T21:24:00.128Z,13.57
2022-10-14T21:26:28.397Z,13.57
2022-10-14T21:28:56.156Z,13.57
2022-10-14T21:31:24.000Z,13.58
2022-10-14T21:34:05.020Z,13.57
2022-10-14T21:36:35.060Z,13.57
2022-10-14T21:39:09.763Z,13.56
2022-10-14T21:41:38.436Z,13.57
2022-10-14T21:44:07.590Z,13.61
2022-10-14T21:46:36.279Z,13.61
2022-10-14T21:49:04.040Z,13.60
2022-10-14T21:51:32.329Z,13.63
2022-10-14T21:54:00.079Z,13.62
2022-10-14T21:56:28.347Z,13.62
2022-10-14T21:58:56.644Z,13.61
2022-10-14T22:01:29.961Z,13.60
2022-10-14T22:03:59.195Z,13.59
2022-10-14T22:06:28.181Z,13.56
2022-10-14T22:08:57.993Z,13.53
2022-10-14T22:11:30.543Z,13.52
2022-10-14T22:14:01.911Z,13.52
2022-10-14T22:16:30.659Z,13.54
2022-10-14T22:19:03.510Z,13.52
2022-10-14T22:21:33.298Z,13.53
2022-10-14T22:24:01.834Z,13.52
2022-10-14T22:26:31.083Z,13.50
2022-10-14T22:29:01.653Z,13.51
2022-10-14T22:31:30.789Z,13.49
2022-10-14T22:33:59.774Z,13.50
2022-10-14T22:36:29.602Z,13.51
2022-10-14T22:38:58.810Z,13.48
2022-10-14T22:41:30.979Z,13.44
2022-10-14T22:44:01.785Z,13.46
2022-10-14T22:46:32.047Z,13.46
2022-10-14T22:49:01.994Z,13.45
2022-10-14T22:51:35.470Z,13.46
2022-10-14T22:54:03.928Z,13.46
2022-10-14T22:56:32.598Z,13.48
2022-10-14T22:59:02.953Z,13.45
2022-10-14T23:01:30.689Z,13.46
2022-10-14T23:04:00.129Z,13.45
2022-10-14T23:06:28.633Z,13.46
2022-10-14T23:08:56.828Z,13.45
2022-10-14T23:11:26.007Z,13.42
2022-10-14T23:13:54.058Z,13.42
2022-10-14T23:16:25.185Z,13.44
2022-10-14T23:18:53.999Z,13.44
2022-10-14T23:21:24.595Z,13.45
2022-10-14T23:23:53.953Z,13.47
2022-10-14T23:26:24.369Z,13.48
2022-10-14T23:28:56.977Z,13.48
2022-10-14T23:31:28.220Z,13.49
2022-10-14T23:33:59.379Z,13.49
2022-10-14T23:36:27.764Z,13.49
2022-10-14T23:38:55.425Z,13.50
2022-10-14T23:41:24.206Z,13.50
2022-10-14T23:43:53.012Z,13.52
2022-10-14T23:46:21.828Z,13.51
2022-10-14T23:49:00.794Z,13.52
2022-10-14T23:51:37.826Z,13.53
2022-10-14T23:54:05.832Z,13.54
2022-10-14T23:56:33.588Z,13.53
2022-10-14T23:59:01.201Z,13.53
